首页
METAR-TAF:

METAR-TAF

机场 :

科尔多瓦, 阿根廷

纬度: 31-19S, 经度: 064-13W, 海拔: 484米

当前天气观测

该预报发布于47分钟前的18:00 UTC
风速2节,风向多变
温度 19°C
湿度 32%
气压 1017 hPa
能见度10公里或以上
1500米以下无云,无积雨云

METAR: SACO 291800Z VRB02KT CAVOK 19/02 Q1017 NOSIG

时间: 15:47 (18:47 UTC)

预报

该预报发布于1小时和47分钟前的17:00 UTC
预报有效从29日的 18点(UTC)到 30日的 18点(UTC)
风速15节,风向北转东北
能见度10公里或以上
1500米以下无云,无积雨云
成为
从 30日的 06点(UTC)到 30日的 09点(UTC)
风速5节,风向西
能见度10公里或以上
1500米以下无云,无积雨云
成为
从 30日的 15点(UTC)到 30日的 18点(UTC)
风速5节,风向南转南东
能见度10公里或以上
1500米以下无云,无积雨云

TAF: SACO 291700Z 2918/3018 02015KT CAVOK TX19/3018Z TNM01/3011Z BECMG 3006/3009 27005KT CAVOK BECMG 3015/3018 16005KT CAVOK

超过4000个机场的气象观测和天气预报(METAR&TAF报告)。

可查询的气象台以黄色和红色小点在地图上表示。

将鼠标移到小点上方,可查看气象台名称。

然后点击查看天气观测和预报。

如需切换地图:点击带黑十字的绿色按钮放大地图;点击带横线的绿色按钮缩小地图;或者点击绿色箭头查看邻近地区的地图。


METAR-TAF: